Terminal Aerodrome Forecast
Issued by NWS

Current Version | Previous Version | Text Only | Print | Product List | Glossary On
Versions: 1 2 3 4 5 6 7 8 9 10 11 12 13 14 15 16 17 18 19 20 21 22 23 24 25 26 27 28 29 30 31 32 33 34 35 36 37 38 39 40 41 42 43 44 45 46 47 48 49 50
406
FTUS41 KCTP 081143
TAFJST
TAF
KJST 081143Z 0812/0912 16005KT P6SM BKN120
     FM081600 15008KT P6SM SCT060 OVC100
     FM081900 15008KT P6SM VCSH BKN060 OVC100
     FM082100 16006KT 1 1/2SM -SN OVC020
     FM090000 16005KT 3/4SM -SN BR OVC009
     FM090400 16005KT 3/4SM -SN BR OVC005=

USA.gov is the U.S. government's official web portal to all federal, state and local government web resources and services.